Time;durP1;ratioP1;P1;durP2;ratioP2;P2;SDS_P1;SDS_P2;PMS_P1;PMS_P2;Temp;Humidity;BMP_temperature;BMP_pressure;BME280_temperature;BME280_humidity;BME280_pressure;Samples;Min_cycle;Max_cycle;Signal;HPM_P1;HPM_P2
2023/12/10 00:00:31;;;;;;;17.95;3.67;;;8.90;99.90;;;;;;5017139;28;20060;-78
2023/12/10 00:02:57;;;;;;;19.88;2.60;;;9.00;99.90;;;;;;5018335;28;20041;-78
2023/12/10 00:05:22;;;;;;;15.07;2.83;;;9.10;99.90;;;;;;5033936;28;20048;-79
2023/12/10 00:07:48;;;;;;;16.85;2.65;;;9.10;99.90;;;;;;5034787;28;20045;-78
2023/12/10 00:10:14;;;;;;;18.90;3.63;;;9.00;99.90;;;;;;5033555;28;20050;-78
2023/12/10 00:12:40;;;;;;;14.48;2.45;;;9.00;99.90;;;;;;5015374;28;20045;-78
2023/12/10 00:15:06;;;;;;;19.77;3.63;;;9.00;99.90;;;;;;5017561;28;20052;-78
2023/12/10 00:17:32;;;;;;;15.07;3.67;;;8.90;99.90;;;;;;5049819;28;20042;-77
2023/12/10 00:19:57;;;;;;;20.77;3.25;;;9.00;99.90;;;;;;5033867;28;20047;-78
2023/12/10 00:22:23;;;;;;;20.42;3.70;;;8.90;99.90;;;;;;5034559;28;20523;-78
2023/12/10 00:24:49;;;;;;;12.70;3.03;;;8.90;99.90;;;;;;5017483;28;20033;-78
2023/12/10 00:27:15;;;;;;;11.57;2.90;;;9.00;99.90;;;;;;5031464;28;20510;-78
2023/12/10 00:29:40;;;;;;;16.33;3.17;;;9.10;99.90;;;;;;5016883;28;20120;-77
2023/12/10 00:32:06;;;;;;;13.88;3.08;;;9.20;99.90;;;;;;5034289;28;20046;-78
2023/12/10 00:34:32;;;;;;;18.23;3.22;;;9.10;99.90;;;;;;5017832;28;20037;-78
2023/12/10 00:36:58;;;;;;;13.05;2.42;;;9.10;99.90;;;;;;5016993;28;20045;-78
2023/12/10 00:39:23;;;;;;;10.70;2.25;;;9.10;99.90;;;;;;5017736;28;20050;-77
2023/12/10 00:41:49;;;;;;;17.90;3.17;;;9.10;99.90;;;;;;5033291;28;20060;-77
2023/12/10 00:44:14;;;;;;;14.25;2.75;;;9.10;99.90;;;;;;5033208;28;20083;-77
2023/12/10 00:46:40;;;;;;;11.73;1.77;;;9.10;99.90;;;;;;5033155;28;20087;-78
2023/12/10 00:49:06;;;;;;;19.92;3.38;;;9.20;99.90;;;;;;5017541;28;20042;-77
2023/12/10 00:51:31;;;;;;;14.77;2.53;;;9.00;99.90;;;;;;5016854;28;20087;-77
2023/12/10 00:53:57;;;;;;;18.17;3.75;;;9.00;99.90;;;;;;5034192;28;20504;-77
2023/12/10 00:56:23;;;;;;;15.55;2.42;;;9.10;99.90;;;;;;5031443;28;20568;-77
2023/12/10 00:58:48;;;;;;;15.95;3.33;;;9.00;99.90;;;;;;5016558;28;20191;-77
2023/12/10 01:01:14;;;;;;;8.05;1.77;;;9.00;99.90;;;;;;5032254;28;20124;-78
2023/12/10 01:03:40;;;;;;;18.23;3.60;;;9.10;99.90;;;;;;5032022;28;20029;-77
2023/12/10 01:06:06;;;;;;;11.05;2.40;;;9.00;99.90;;;;;;5032286;28;20033;-77
2023/12/10 01:08:32;;;;;;;21.05;3.28;;;9.10;99.90;;;;;;5033858;28;20029;-77
2023/12/10 01:10:58;;;;;;;14.95;2.55;;;8.80;99.90;;;;;;5033908;28;20072;-77
2023/12/10 01:13:24;;;;;;;16.63;2.53;;;8.80;99.90;;;;;;5013745;28;20052;-77
2023/12/10 01:15:57;;;;;;;6.07;2.20;;;8.90;99.90;;;;;;5021547;28;20505;-77
2023/12/10 01:18:23;;;;;;;11.93;2.65;;;9.00;99.90;;;;;;5032568;28;20049;-77
2023/12/10 01:20:49;;;;;;;13.98;3.00;;;9.00;99.90;;;;;;5019867;28;20048;-77
2023/12/10 01:23:14;;;;;;;14.57;2.47;;;9.10;99.90;;;;;;5028137;28;20047;-77
2023/12/10 01:25:43;;;;;;;11.25;2.88;;;9.00;99.90;;;;;;5030232;28;20033;-77
2023/12/10 01:28:10;;;;;;;15.85;3.20;;;9.00;99.90;;;;;;5014013;28;20125;-77
2023/12/10 01:30:36;;;;;;;16.70;2.80;;;8.80;99.90;;;;;;5032610;28;20073;-77
2023/12/10 01:33:02;;;;;;;15.52;2.75;;;8.80;99.90;;;;;;5015727;28;20410;-77
2023/12/10 01:35:28;;;;;;;6.22;1.45;;;8.70;99.90;;;;;;5032261;28;20038;-77
2023/12/10 01:37:54;;;;;;;6.82;1.63;;;8.70;99.90;;;;;;5030117;28;20093;-77
2023/12/10 01:40:20;;;;;;;11.18;2.60;;;8.80;99.90;;;;;;5016598;28;20041;-76
2023/12/10 01:42:46;;;;;;;4.95;1.38;;;8.80;99.90;;;;;;5031934;28;20380;-77
2023/12/10 01:45:12;;;;;;;12.90;2.03;;;8.80;99.90;;;;;;5032529;28;20077;-77
2023/12/10 01:47:42;;;;;;;19.92;1.85;;;8.70;99.90;;;;;;5031968;28;20041;-78
2023/12/10 01:50:11;;;;;;;12.18;2.15;;;8.80;99.90;;;;;;5031103;28;20041;-78
2023/12/10 01:52:38;;;;;;;12.18;2.10;;;8.70;99.90;;;;;;5032750;28;20041;-79
2023/12/10 01:55:05;;;;;;;8.80;2.25;;;8.80;99.90;;;;;;5031006;28;20033;-78
2023/12/10 01:57:33;;;;;;;15.75;2.58;;;8.70;99.90;;;;;;5031633;28;20068;-78
2023/12/10 01:59:59;;;;;;;13.65;2.80;;;8.70;99.90;;;;;;5014929;28;20064;-78
2023/12/10 02:02:26;;;;;;;8.57;2.47;;;8.70;99.90;;;;;;5016119;28;20486;-79
2023/12/10 02:04:54;;;;;;;8.85;2.45;;;8.70;99.90;;;;;;5030754;28;20044;-79
2023/12/10 02:07:23;;;;;;;19.85;3.25;;;8.70;99.90;;;;;;5030665;28;20120;-78
2023/12/10 02:09:50;;;;;;;9.00;2.53;;;8.60;99.90;;;;;;5022916;28;20116;-79
2023/12/10 02:12:18;;;;;;;12.13;3.08;;;8.70;99.90;;;;;;5016081;28;20045;-79
2023/12/10 02:14:44;;;;;;;10.70;2.47;;;8.60;99.90;;;;;;5030411;28;20409;-79
2023/12/10 02:17:09;;;;;;;12.35;2.00;;;8.60;99.90;;;;;;5015528;28;20095;-79
2023/12/10 02:19:35;;;;;;;9.45;2.42;;;8.60;99.90;;;;;;5013854;28;20122;-79
2023/12/10 02:22:03;;;;;;;12.30;2.13;;;8.60;99.90;;;;;;5032504;28;20037;-79
2023/12/10 02:24:51;;;;;;;9.75;2.13;;;8.60;99.90;;;;;;5014872;28;20841;-80
2023/12/10 02:27:17;;;;;;;16.90;2.88;;;8.60;99.90;;;;;;5015136;28;20398;-79
2023/12/10 02:29:43;;;;;;;16.02;3.08;;;8.60;99.90;;;;;;5030788;28;20045;-80
2023/12/10 02:32:08;;;;;;;14.73;3.30;;;8.60;99.90;;;;;;5014881;28;20408;-79
2023/12/10 02:34:35;;;;;;;8.95;2.22;;;8.50;99.90;;;;;;5032118;28;20052;-79
2023/12/10 02:37:01;;;;;;;11.55;2.33;;;8.60;99.90;;;;;;5012421;28;20125;-78
2023/12/10 02:39:26;;;;;;;9.98;2.47;;;8.60;99.90;;;;;;5030381;28;20144;-79
2023/12/10 02:41:52;;;;;;;14.38;3.00;;;8.60;99.90;;;;;;5029653;28;20033;-79
2023/12/10 02:44:18;;;;;;;13.20;2.45;;;8.60;99.90;;;;;;5031373;28;21029;-79
2023/12/10 02:46:44;;;;;;;17.85;2.95;;;8.60;99.90;;;;;;5030306;28;20391;-79
2023/12/10 02:49:10;;;;;;;9.35;1.98;;;8.60;99.90;;;;;;5030488;28;20037;-79
2023/12/10 02:51:36;;;;;;;13.95;2.50;;;8.60;99.90;;;;;;5029830;28;20041;-79
2023/12/10 02:54:02;;;;;;;16.15;3.15;;;8.60;99.90;;;;;;5031507;28;20460;-79
2023/12/10 02:56:27;;;;;;;13.68;3.05;;;8.60;99.90;;;;;;5014627;28;20029;-79
2023/12/10 02:58:53;;;;;;;10.30;2.25;;;8.60;99.90;;;;;;5030769;28;20045;-79
2023/12/10 03:01:19;;;;;;;12.60;2.40;;;8.60;99.90;;;;;;5029913;28;20042;-79
2023/12/10 03:03:44;;;;;;;7.30;1.85;;;8.60;99.90;;;;;;5030901;28;20051;-79
2023/12/10 03:06:10;;;;;;;8.52;2.50;;;8.60;99.90;;;;;;5013695;28;20040;-80
2023/12/10 03:08:36;;;;;;;12.95;2.13;;;8.60;99.90;;;;;;5037638;28;20056;-79
2023/12/10 03:11:01;;;;;;;10.20;2.55;;;8.70;99.90;;;;;;5031771;28;20037;-80
2023/12/10 03:13:27;;;;;;;11.70;2.63;;;8.70;99.90;;;;;;5014220;28;20049;-79
2023/12/10 03:15:53;;;;;;;8.05;1.88;;;8.70;99.90;;;;;;5029329;28;20041;-80
2023/12/10 03:18:18;;;;;;;9.85;2.10;;;8.60;99.90;;;;;;5031428;28;20128;-80
2023/12/10 03:20:44;;;;;;;14.27;2.22;;;8.70;99.90;;;;;;5028451;28;20041;-80
2023/12/10 03:23:10;;;;;;;10.57;1.80;;;8.60;99.90;;;;;;5014094;28;20030;-80
2023/12/10 03:25:35;;;;;;;9.57;2.63;;;8.60;99.90;;;;;;5016126;28;20061;-80
2023/12/10 03:28:01;;;;;;;10.00;1.80;;;8.70;99.90;;;;;;5030604;28;20037;-80
2023/12/10 03:30:27;;;;;;;11.52;2.58;;;8.60;99.90;;;;;;5030760;28;20049;-79
2023/12/10 03:32:52;;;;;;;14.60;2.15;;;8.60;99.90;;;;;;5029633;28;20112;-81
2023/12/10 03:35:18;;;;;;;8.23;2.10;;;8.60;99.90;;;;;;5031469;28;20101;-80
2023/12/10 03:37:43;;;;;;;12.18;2.22;;;8.50;99.90;;;;;;5006685;28;20472;-79
2023/12/10 03:40:10;;;;;;;7.32;1.25;;;8.60;99.90;;;;;;5013443;28;20030;-79
2023/12/10 03:42:35;;;;;;;9.93;1.80;;;8.50;99.90;;;;;;5031457;28;20041;-79
2023/12/10 03:45:01;;;;;;;8.07;2.20;;;8.60;99.90;;;;;;5028659;28;20034;-79
2023/12/10 03:47:27;;;;;;;7.95;2.15;;;8.60;99.90;;;;;;5015000;28;20099;-79
2023/12/10 03:49:52;;;;;;;10.13;2.03;;;8.50;99.90;;;;;;5030056;28;20656;-80
2023/12/10 03:52:18;;;;;;;8.27;1.88;;;8.50;99.90;;;;;;5035415;28;20060;-79
2023/12/10 03:54:44;;;;;;;5.93;1.58;;;8.50;99.90;;;;;;5017439;28;20037;-79
2023/12/10 03:57:09;;;;;;;9.20;1.60;;;8.50;99.90;;;;;;5018888;28;20096;-79
2023/12/10 03:59:35;;;;;;;2.13;0.80;;;8.40;99.90;;;;;;5016505;28;20489;-80
2023/12/10 04:02:01;;;;;;;5.82;1.20;;;8.50;99.90;;;;;;5018524;28;20041;-79
2023/12/10 04:04:26;;;;;;;6.15;0.98;;;8.60;99.90;;;;;;5031538;28;20041;-79
2023/12/10 04:06:52;;;;;;;3.75;1.10;;;8.50;99.90;;;;;;5033589;28;20074;-79
2023/12/10 04:09:17;;;;;;;5.63;1.17;;;8.50;99.90;;;;;;5032760;28;20071;-79
2023/12/10 04:11:43;;;;;;;5.85;1.58;;;8.60;99.90;;;;;;5031219;28;20406;-79
2023/12/10 04:14:09;;;;;;;5.47;0.98;;;8.50;99.90;;;;;;5006540;28;20037;-80
2023/12/10 04:16:36;;;;;;;5.75;1.35;;;8.50;99.90;;;;;;5017058;28;20052;-79
2023/12/10 04:19:03;;;;;;;1.20;0.40;;;8.50;99.90;;;;;;5015653;28;20042;-79
2023/12/10 04:21:28;;;;;;;2.88;1.08;;;8.60;99.90;;;;;;5016890;28;20044;-80
2023/12/10 04:23:54;;;;;;;3.83;1.15;;;8.60;99.90;;;;;;5033604;28;20034;-80
2023/12/10 04:26:21;;;;;;;4.53;1.00;;;8.50;99.90;;;;;;5017035;28;20033;-80
2023/12/10 04:28:47;;;;;;;3.50;0.90;;;8.60;99.90;;;;;;5017928;28;20042;-80
2023/12/10 04:31:13;;;;;;;5.30;1.45;;;8.50;99.90;;;;;;5032365;28;20474;-80
2023/12/10 04:33:39;;;;;;;2.60;0.80;;;8.60;99.90;;;;;;5016151;28;20128;-79
2023/12/10 04:36:05;;;;;;;4.43;1.30;;;8.60;99.90;;;;;;5016598;28;20038;-80
2023/12/10 04:38:30;;;;;;;5.57;1.58;;;8.60;99.90;;;;;;5033754;28;20121;-80
2023/12/10 04:40:57;;;;;;;4.15;1.08;;;8.60;99.90;;;;;;5016884;28;20471;-79
2023/12/10 04:43:22;;;;;;;4.20;1.33;;;8.60;99.90;;;;;;5032504;28;20077;-77
2023/12/10 04:45:48;;;;;;;7.38;1.55;;;8.70;99.90;;;;;;5017955;28;20068;-78
2023/12/10 04:48:14;;;;;;;7.30;2.35;;;8.70;99.90;;;;;;5016709;28;20045;-78
2023/12/10 04:50:40;;;;;;;9.30;1.40;;;8.60;99.90;;;;;;5016982;28;20482;-77
2023/12/10 04:53:09;;;;;;;6.82;1.30;;;8.60;99.90;;;;;;5030957;28;20120;-78
2023/12/10 04:55:35;;;;;;;3.67;1.00;;;8.60;99.90;;;;;;4997814;28;20041;-79
2023/12/10 04:58:00;;;;;;;6.35;0.95;;;8.60;99.90;;;;;;5019267;28;20046;-78
2023/12/10 05:00:26;;;;;;;4.15;0.77;;;8.60;99.90;;;;;;5030999;28;20144;-78
2023/12/10 05:02:52;;;;;;;3.78;0.80;;;8.60;99.90;;;;;;5033748;28;20033;-78
2023/12/10 05:05:18;;;;;;;5.72;1.30;;;8.60;99.90;;;;;;5015400;28;20038;-77
2023/12/10 05:07:44;;;;;;;5.32;1.13;;;8.60;99.90;;;;;;5033685;28;20037;-78
2023/12/10 05:10:10;;;;;;;2.97;0.90;;;8.50;99.90;;;;;;5013683;28;20044;-78
2023/12/10 05:12:35;;;;;;;3.15;0.80;;;8.70;99.90;;;;;;5033587;28;20037;-78
2023/12/10 05:15:01;;;;;;;4.97;1.20;;;8.70;99.90;;;;;;5033609;28;20414;-77
2023/12/10 05:17:27;;;;;;;2.13;0.68;;;8.60;99.90;;;;;;5014886;28;20393;-78
2023/12/10 05:19:52;;;;;;;3.75;0.90;;;8.60;99.90;;;;;;5014135;28;20038;-78
2023/12/10 05:22:20;;;;;;;3.70;0.90;;;8.60;99.90;;;;;;5015751;28;20038;-79
2023/12/10 05:24:45;;;;;;;5.22;1.15;;;8.60;99.90;;;;;;5032225;28;20139;-79
2023/12/10 05:27:12;;;;;;;9.27;1.10;;;8.60;99.90;;;;;;5015952;28;20033;-78
2023/12/10 05:29:38;;;;;;;8.80;1.38;;;8.60;99.90;;;;;;5013859;28;20037;-79
2023/12/10 05:32:04;;;;;;;6.35;0.95;;;8.50;99.90;;;;;;5031759;28;20137;-79
2023/12/10 05:34:30;;;;;;;5.15;1.23;;;8.60;99.90;;;;;;5031972;28;20509;-78
2023/12/10 05:36:56;;;;;;;3.65;1.02;;;8.60;99.90;;;;;;5033206;28;20041;-78
2023/12/10 05:39:21;;;;;;;4.80;1.08;;;8.60;99.90;;;;;;5028861;28;20049;-79
2023/12/10 05:41:47;;;;;;;4.50;0.82;;;8.70;99.90;;;;;;5031499;28;20021;-79
2023/12/10 05:44:13;;;;;;;6.10;1.38;;;8.70;99.90;;;;;;5014604;28;20041;-80
2023/12/10 05:46:38;;;;;;;10.90;1.75;;;8.70;99.90;;;;;;5015490;28;20375;-78
2023/12/10 05:49:04;;;;;;;3.33;0.77;;;8.60;99.90;;;;;;5031924;28;20386;-79
2023/12/10 05:51:30;;;;;;;8.68;1.88;;;8.60;99.90;;;;;;5029518;28;20033;-79
2023/12/10 05:53:56;;;;;;;7.43;1.45;;;8.60;99.90;;;;;;5032634;28;20037;-78
2023/12/10 05:56:22;;;;;;;8.27;1.38;;;8.60;99.90;;;;;;5015289;28;20041;-77
2023/12/10 05:58:48;;;;;;;9.75;1.90;;;8.60;99.90;;;;;;5015295;28;20053;-79
2023/12/10 06:01:13;;;;;;;11.75;1.95;;;8.60;99.90;;;;;;5023890;28;20128;-79
2023/12/10 06:03:39;;;;;;;11.75;1.83;;;8.60;99.90;;;;;;5031596;28;20090;-77
2023/12/10 06:06:05;;;;;;;12.90;1.88;;;8.60;99.90;;;;;;5031969;28;20494;-77
2023/12/10 06:08:31;;;;;;;11.13;1.75;;;8.50;99.90;;;;;;5030799;28;20053;-78
2023/12/10 06:10:56;;;;;;;10.07;1.92;;;8.60;99.90;;;;;;5031130;28;20418;-78
2023/12/10 06:13:22;;;;;;;10.88;1.90;;;8.50;99.90;;;;;;5013012;28;20040;-78
2023/12/10 06:15:48;;;;;;;13.23;1.80;;;8.50;99.90;;;;;;5016134;28;20037;-79
2023/12/10 06:18:14;;;;;;;8.65;1.10;;;8.60;99.90;;;;;;5014759;28;20507;-77
2023/12/10 06:20:39;;;;;;;7.13;1.50;;;8.50;99.90;;;;;;5029935;28;20383;-80
2023/12/10 06:23:05;;;;;;;6.90;1.20;;;8.50;99.90;;;;;;5030926;28;20108;-76
2023/12/10 06:25:31;;;;;;;4.97;1.10;;;8.50;99.90;;;;;;5030731;28;20041;-78
2023/12/10 06:27:56;;;;;;;10.48;1.27;;;8.50;99.90;;;;;;5015851;28;20037;-77
2023/12/10 06:30:23;;;;;;;5.40;1.10;;;8.50;99.90;;;;;;5029983;28;20053;-78
2023/12/10 06:32:49;;;;;;;9.75;1.70;;;8.50;99.90;;;;;;5032254;28;20037;-79
2023/12/10 06:35:14;;;;;;;5.85;1.20;;;8.50;99.90;;;;;;5030284;28;20083;-78
2023/12/10 06:37:40;;;;;;;9.23;1.40;;;8.50;99.90;;;;;;5014496;28;20033;-79
2023/12/10 06:40:07;;;;;;;4.20;1.02;;;8.50;99.90;;;;;;5031315;28;20080;-80
2023/12/10 06:42:33;;;;;;;7.47;1.00;;;8.50;99.90;;;;;;5031490;28;20489;-81
2023/12/10 06:44:59;;;;;;;6.38;1.60;;;8.40;99.90;;;;;;5029203;28;20033;-80
2023/12/10 06:47:25;;;;;;;6.60;1.00;;;8.40;99.90;;;;;;5031967;28;20508;-79
2023/12/10 06:49:50;;;;;;;7.93;1.05;;;8.40;99.90;;;;;;5030764;28;20045;-81
2023/12/10 06:52:17;;;;;;;5.43;1.00;;;8.40;99.90;;;;;;5014321;28;20103;-79
2023/12/10 06:54:43;;;;;;;7.07;1.05;;;8.40;99.90;;;;;;5014779;28;20042;-81
2023/12/10 06:57:09;;;;;;;3.78;0.95;;;8.50;99.90;;;;;;5030729;28;20042;-81
2023/12/10 06:59:35;;;;;;;2.70;0.75;;;8.50;99.90;;;;;;5015106;28;20054;-80
2023/12/10 07:02:00;;;;;;;2.55;0.63;;;8.50;99.90;;;;;;5013151;28;20049;-80
2023/12/10 07:04:26;;;;;;;2.05;0.60;;;8.50;99.90;;;;;;5030737;28;20512;-81
2023/12/10 07:06:52;;;;;;;2.75;0.70;;;8.50;99.90;;;;;;5029769;28;20037;-81
2023/12/10 07:09:18;;;;;;;4.13;0.55;;;8.50;99.90;;;;;;5014669;28;20142;-81
2023/12/10 07:11:43;;;;;;;2.20;0.50;;;8.50;99.90;;;;;;5030720;28;20467;-80
2023/12/10 07:14:09;;;;;;;5.07;0.93;;;8.50;99.90;;;;;;5014634;28;20132;-81
2023/12/10 07:16:35;;;;;;;2.42;0.60;;;8.50;99.90;;;;;;5012677;28;20482;-80
2023/12/10 07:19:01;;;;;;;6.13;0.90;;;8.60;99.90;;;;;;5028727;28;20077;-80
2023/12/10 07:21:26;;;;;;;5.13;1.77;;;8.50;99.90;;;;;;5015217;28;20045;-80
2023/12/10 07:23:52;;;;;;;3.28;0.82;;;8.50;99.90;;;;;;5013054;28;20037;-81
2023/12/10 07:26:22;;;;;;;4.80;1.10;;;8.50;99.90;;;;;;5018073;28;20043;-81
2023/12/10 07:28:48;;;;;;;4.13;0.73;;;8.50;99.90;;;;;;5032694;28;20571;-81
2023/12/10 07:31:14;;;;;;;3.80;0.80;;;8.50;99.90;;;;;;5017286;28;20041;-81
2023/12/10 07:33:39;;;;;;;2.15;0.50;;;8.50;99.90;;;;;;5018266;28;20037;-80
2023/12/10 07:36:05;;;;;;;3.75;0.63;;;8.60;99.90;;;;;;5015585;28;20047;-81
2023/12/10 07:38:31;;;;;;;7.63;0.90;;;8.60;99.90;;;;;;5016781;28;20046;-81
2023/12/10 07:40:57;;;;;;;5.05;0.73;;;8.60;99.90;;;;;;5017753;28;20037;-80
2023/12/10 07:43:22;;;;;;;6.93;0.93;;;8.60;99.90;;;;;;5033678;28;20099;-80
2023/12/10 07:45:48;;;;;;;6.30;0.93;;;8.60;99.90;;;;;;5033056;28;20040;-80
2023/12/10 07:48:14;;;;;;;7.47;1.70;;;8.60;99.90;;;;;;5019545;28;20080;-81
2023/12/10 07:50:39;;;;;;;11.27;1.38;;;8.60;99.90;;;;;;5007243;28;20038;-80
2023/12/10 07:53:05;;;;;;;7.75;1.60;;;8.50;99.90;;;;;;5021557;28;20413;-81
2023/12/10 07:55:31;;;;;;;8.60;1.42;;;8.60;99.90;;;;;;5029139;28;20037;-80
2023/12/10 07:57:56;;;;;;;6.35;1.15;;;8.60;99.90;;;;;;5005126;28;20164;-81
2023/12/10 08:00:22;;;;;;;7.65;1.50;;;8.60;99.90;;;;;;4987750;28;20496;-78
2023/12/10 08:02:48;;;;;;;6.18;1.17;;;8.60;99.90;;;;;;5017038;28;20048;-81
2023/12/10 08:05:14;;;;;;;5.90;1.08;;;8.60;99.90;;;;;;5039716;28;20041;-80
2023/12/10 08:07:40;;;;;;;5.65;1.02;;;8.50;99.90;;;;;;5016242;28;20065;-81
2023/12/10 08:10:06;;;;;;;5.45;0.90;;;8.60;99.90;;;;;;5032251;28;20048;-80
2023/12/10 08:12:32;;;;;;;6.07;1.45;;;8.60;99.90;;;;;;5018276;28;20042;-82
2023/12/10 08:14:58;;;;;;;12.32;1.50;;;8.60;99.90;;;;;;4996030;28;20111;-80
2023/12/10 08:17:24;;;;;;;13.98;1.77;;;8.60;99.90;;;;;;5025065;28;20052;-81
2023/12/10 08:19:49;;;;;;;12.68;1.50;;;8.60;99.90;;;;;;4997246;28;20045;-81
2023/12/10 08:22:15;;;;;;;13.23;2.22;;;8.60;99.90;;;;;;5007493;28;20041;-80
2023/12/10 08:24:40;;;;;;;12.35;1.88;;;8.60;99.90;;;;;;5016337;28;20036;-81
2023/12/10 08:27:06;;;;;;;17.77;2.55;;;8.60;99.90;;;;;;4989595;28;20091;-80
2023/12/10 08:29:32;;;;;;;12.20;2.10;;;8.60;99.90;;;;;;5011713;28;20897;-81
2023/12/10 08:31:58;;;;;;;10.63;2.55;;;8.60;99.90;;;;;;4996856;28;20064;-81
2023/12/10 08:34:24;;;;;;;13.10;2.15;;;8.50;99.90;;;;;;4996809;28;20049;-81
2023/12/10 08:36:49;;;;;;;13.60;2.65;;;8.50;99.90;;;;;;5018677;28;20439;-81
2023/12/10 08:39:15;;;;;;;12.98;2.33;;;8.50;99.90;;;;;;5000734;28;20475;-81
2023/12/10 08:41:41;;;;;;;14.93;1.83;;;8.50;99.90;;;;;;5008832;28;20061;-81
2023/12/10 08:44:07;;;;;;;19.23;2.83;;;8.50;99.90;;;;;;5009006;28;20064;-82
2023/12/10 08:46:33;;;;;;;15.82;2.40;;;8.60;99.90;;;;;;5012053;28;20088;-80
2023/12/10 08:48:58;;;;;;;23.42;2.83;;;8.50;99.90;;;;;;4999560;28;20041;-81
2023/12/10 08:51:24;;;;;;;18.67;2.90;;;8.50;99.90;;;;;;5007824;28;20040;-80
2023/12/10 08:53:50;;;;;;;16.73;2.47;;;8.50;99.90;;;;;;5007366;28;20041;-81
2023/12/10 08:56:16;;;;;;;13.13;2.42;;;8.50;99.90;;;;;;5004138;28;20173;-80
2023/12/10 08:58:42;;;;;;;18.67;2.85;;;8.50;99.90;;;;;;5012203;28;20049;-80
2023/12/10 09:01:07;;;;;;;20.17;2.67;;;8.50;99.90;;;;;;4993685;28;20500;-79
2023/12/10 09:03:33;;;;;;;19.83;2.65;;;8.50;99.90;;;;;;5003341;28;20049;-80
2023/12/10 09:06:00;;;;;;;15.88;2.50;;;8.50;99.90;;;;;;5008762;28;20133;-81
2023/12/10 09:08:26;;;;;;;20.75;2.80;;;8.50;99.90;;;;;;4996538;28;20166;-79
2023/12/10 09:10:52;;;;;;;13.70;2.28;;;8.50;99.90;;;;;;5029916;28;20129;-80
2023/12/10 09:13:18;;;;;;;12.98;2.65;;;8.50;99.90;;;;;;5006140;28;20405;-80
2023/12/10 09:15:44;;;;;;;14.43;2.05;;;8.50;99.90;;;;;;4997077;28;20030;-80
2023/12/10 09:18:10;;;;;;;8.13;2.03;;;8.60;99.90;;;;;;5004889;28;20048;-80
2023/12/10 09:20:36;;;;;;;16.55;2.15;;;8.60;99.90;;;;;;5022498;28;20037;-80
2023/12/10 09:23:02;;;;;;;17.60;2.83;;;8.60;99.90;;;;;;5035152;28;20044;-80
2023/12/10 09:25:27;;;;;;;8.55;2.05;;;8.60;99.90;;;;;;5015724;28;20444;-79
2023/12/10 09:27:53;;;;;;;19.73;2.65;;;8.60;99.90;;;;;;5008826;28;20048;-80
2023/12/10 09:30:19;;;;;;;12.80;1.90;;;8.60;99.90;;;;;;4993437;28;20091;-80
2023/12/10 09:32:45;;;;;;;6.82;1.90;;;8.60;99.90;;;;;;5010991;28;20473;-79
2023/12/10 09:35:10;;;;;;;14.55;2.33;;;8.60;99.90;;;;;;5015512;28;20033;-79
2023/12/10 09:37:39;;;;;;;15.05;2.00;;;8.70;99.90;;;;;;5032480;28;20029;-79
2023/12/10 09:40:05;;;;;;;15.00;2.03;;;8.60;99.90;;;;;;5032534;28;20112;-80
2023/12/10 09:42:31;;;;;;;11.48;1.85;;;8.60;99.90;;;;;;5021787;28;20124;-80
2023/12/10 09:44:56;;;;;;;11.60;1.83;;;8.60;99.90;;;;;;5013633;28;20112;-79
2023/12/10 09:47:25;;;;;;;14.20;2.30;;;8.60;99.90;;;;;;5015453;28;20040;-80
2023/12/10 09:49:54;;;;;;;12.70;2.03;;;8.50;99.90;;;;;;5030664;28;20043;-80
2023/12/10 09:52:19;;;;;;;9.98;1.65;;;8.50;99.90;;;;;;5032203;28;20042;-80
2023/12/10 09:54:45;;;;;;;11.02;2.00;;;8.50;99.90;;;;;;5014110;28;20038;-80
2023/12/10 09:57:13;;;;;;;13.50;2.78;;;8.50;99.90;;;;;;5015579;28;20045;-81
2023/12/10 09:59:39;;;;;;;12.20;2.30;;;8.60;99.90;;;;;;5031953;28;20053;-77
2023/12/10 10:02:06;;;;;;;12.23;1.60;;;8.50;99.90;;;;;;5015299;28;20043;-82
2023/12/10 10:04:32;;;;;;;16.15;2.28;;;8.60;99.90;;;;;;5030521;28;20509;-76
2023/12/10 10:06:58;;;;;;;11.60;1.85;;;8.60;99.90;;;;;;5015740;28;20076;-76
2023/12/10 10:09:23;;;;;;;14.48;2.38;;;8.60;99.90;;;;;;5032474;28;20520;-74
2023/12/10 10:11:50;;;;;;;19.73;3.10;;;8.70;99.90;;;;;;5015091;28;20041;-75
2023/12/10 10:14:17;;;;;;;14.30;2.58;;;8.70;99.90;;;;;;5031077;28;20132;-84
2023/12/10 10:16:49;;;;;;;14.40;2.67;;;8.70;99.90;;;;;;5010473;28;20375;-79
2023/12/10 10:19:15;;;;;;;16.25;2.70;;;8.60;99.90;;;;;;5027057;28;20052;-79
2023/12/10 10:21:42;;;;;;;18.83;4.45;;;8.70;99.90;;;;;;5031841;28;20490;-80
2023/12/10 10:24:08;;;;;;;19.70;3.50;;;8.70;99.90;;;;;;5032226;28;20033;-79
2023/12/10 10:26:36;;;;;;;15.57;2.90;;;8.60;99.90;;;;;;5028386;28;20559;-79
2023/12/10 10:29:06;;;;;;;19.38;3.70;;;8.70;99.90;;;;;;5029543;28;20037;-78
2023/12/10 10:31:35;;;;;;;20.63;3.55;;;8.80;99.90;;;;;;5030896;28;20068;-79
2023/12/10 10:34:05;;;;;;;25.13;3.58;;;8.70;99.90;;;;;;5013525;28;20528;-79
2023/12/10 10:36:32;;;;;;;20.30;3.13;;;8.70;99.90;;;;;;5029825;28;20052;-79
2023/12/10 10:38:58;;;;;;;15.30;3.00;;;8.70;99.90;;;;;;5012586;28;20083;-79
2023/12/10 10:41:25;;;;;;;21.13;4.03;;;8.70;99.90;;;;;;5014782;28;20045;-79
2023/12/10 10:43:51;;;;;;;20.45;3.13;;;8.70;99.90;;;;;;5014377;28;20393;-77
2023/12/10 10:46:21;;;;;;;23.42;3.83;;;8.60;99.90;;;;;;5029275;28;20033;-79
2023/12/10 10:48:52;;;;;;;24.42;4.05;;;8.70;99.90;;;;;;5030768;28;20046;-79
2023/12/10 10:51:25;;;;;;;16.10;3.17;;;8.60;99.90;;;;;;5015036;28;20045;-79
2023/12/10 10:54:03;;;;;;;14.35;2.78;;;8.60;99.90;;;;;;5029734;28;20143;-78
2023/12/10 10:56:30;;;;;;;20.73;4.07;;;8.70;99.90;;;;;;5012490;28;20400;-79
2023/12/10 10:58:56;;;;;;;25.80;4.18;;;8.70;99.90;;;;;;5014424;28;20136;-78
2023/12/10 11:01:44;;;;;;;24.55;4.05;;;8.70;99.90;;;;;;5013151;28;20120;-78
2023/12/10 11:04:15;;;;;;;21.75;3.33;;;8.70;99.90;;;;;;5014124;28;20389;-79
2023/12/10 11:06:41;;;;;;;20.83;3.50;;;8.70;99.90;;;;;;5030838;28;20398;-78
2023/12/10 11:09:08;;;;;;;21.80;3.22;;;8.70;99.90;;;;;;5028493;28;20038;-79
2023/12/10 11:11:39;;;;;;;27.20;3.85;;;8.70;99.90;;;;;;5031289;28;20049;-78
2023/12/10 11:14:18;;;;;;;20.23;3.53;;;8.80;99.90;;;;;;5013721;28;20037;-78
2023/12/10 11:16:54;;;;;;;23.52;4.10;;;8.80;99.90;;;;;;5030278;28;20547;-79
2023/12/10 11:19:21;;;;;;;19.45;3.63;;;8.80;99.90;;;;;;5047296;28;20120;-77
2023/12/10 11:21:49;;;;;;;26.63;4.35;;;8.80;99.90;;;;;;5014775;28;20465;-78
2023/12/10 11:24:14;;;;;;;22.85;3.90;;;8.90;99.90;;;;;;5029417;28;20038;-78
2023/12/10 11:26:40;;;;;;;17.90;3.72;;;8.90;99.90;;;;;;5029299;28;20494;-77
2023/12/10 11:29:06;;;;;;;17.65;3.60;;;8.90;99.90;;;;;;5012678;28;20034;-79
2023/12/10 11:31:32;;;;;;;16.38;2.88;;;8.90;99.90;;;;;;5029773;28;20098;-78
2023/12/10 11:33:58;;;;;;;22.88;4.47;;;8.90;99.90;;;;;;5011840;28;20132;-78
2023/12/10 11:36:24;;;;;;;20.73;3.65;;;8.80;99.90;;;;;;5030988;28;20041;-78
2023/12/10 11:38:49;;;;;;;18.48;3.17;;;8.80;99.90;;;;;;5007752;28;20040;-78
2023/12/10 11:41:16;;;;;;;21.55;3.72;;;8.80;99.90;;;;;;5043784;28;20418;-78
2023/12/10 11:43:45;;;;;;;21.50;4.05;;;8.80;99.90;;;;;;5013842;28;20389;-78
2023/12/10 11:46:21;;;;;;;23.85;4.72;;;8.80;99.90;;;;;;5019091;28;20395;-78
2023/12/10 11:48:47;;;;;;;24.65;4.38;;;8.80;99.90;;;;;;5028861;28;20047;-78
2023/12/10 11:51:14;;;;;;;25.80;3.70;;;8.80;99.90;;;;;;5028275;28;20408;-78
2023/12/10 11:53:40;;;;;;;27.88;4.47;;;8.90;99.90;;;;;;5024494;28;20474;-77
2023/12/10 11:56:08;;;;;;;27.77;4.15;;;8.80;99.90;;;;;;5014685;28;20046;-78
2023/12/10 11:58:33;;;;;;;18.60;3.20;;;8.90;99.90;;;;;;5029288;28;20057;-77
2023/12/10 12:01:01;;;;;;;23.02;3.50;;;8.90;99.90;;;;;;5025071;28;20048;-78
2023/12/10 12:03:29;;;;;;;30.80;4.70;;;8.90;99.90;;;;;;5027229;28;20511;-77
2023/12/10 12:05:54;;;;;;;11.48;2.70;;;8.90;99.90;;;;;;5029594;28;20065;-77
2023/12/10 12:08:23;;;;;;;20.00;3.53;;;8.90;99.90;;;;;;5013334;28;20076;-77
2023/12/10 12:10:50;;;;;;;25.77;4.70;;;8.90;99.90;;;;;;5013835;28;20041;-78
2023/12/10 12:13:17;;;;;;;21.70;3.28;;;8.90;99.90;;;;;;5032803;28;20444;-77
2023/12/10 12:15:50;;;;;;;18.63;3.47;;;8.90;99.90;;;;;;5016362;28;20041;-77
2023/12/10 12:18:17;;;;;;;22.67;3.17;;;8.90;99.90;;;;;;5031409;28;20071;-77
2023/12/10 12:20:43;;;;;;;21.95;3.97;;;8.90;99.90;;;;;;5025337;28;20037;-77
2023/12/10 12:23:09;;;;;;;9.43;2.95;;;8.90;99.90;;;;;;5016159;28;20433;-77
2023/12/10 12:25:37;;;;;;;19.35;3.13;;;9.00;99.90;;;;;;5015846;28;20037;-77
2023/12/10 12:28:07;;;;;;;17.08;2.75;;;9.00;99.90;;;;;;5017195;28;20037;-77
2023/12/10 12:30:34;;;;;;;18.27;3.17;;;8.90;99.90;;;;;;5024729;28;20049;-77
2023/12/10 12:33:00;;;;;;;20.95;3.08;;;9.00;99.90;;;;;;5017182;28;20079;-77
2023/12/10 12:35:26;;;;;;;20.45;3.42;;;9.00;99.90;;;;;;5016687;28;20069;-77
2023/12/10 12:37:51;;;;;;;14.90;2.50;;;9.00;99.90;;;;;;5034461;28;20045;-77
2023/12/10 12:40:18;;;;;;;19.92;3.08;;;9.00;99.90;;;;;;5014252;28;20037;-77
2023/12/10 12:42:43;;;;;;;19.25;3.88;;;9.00;99.90;;;;;;5049850;28;20041;-77
2023/12/10 12:45:09;;;;;;;21.83;3.90;;;9.00;99.90;;;;;;5034253;28;20517;-76